sensor_id;sensor_type;location;lat;lon;timestamp;P1;durP1;ratioP1;P2;durP2;ratioP2
41663;SDS011;27353;50.906;7.248;2022-10-16T00:01:22;5.63;;;4.30;;
41663;SDS011;27353;50.906;7.248;2022-10-16T00:03:50;9.43;;;4.30;;
41663;SDS011;27353;50.906;7.248;2022-10-16T00:06:17;8.38;;;4.35;;
41663;SDS011;27353;50.906;7.248;2022-10-16T00:08:50;11.18;;;5.82;;
41663;SDS011;27353;50.906;7.248;2022-10-16T00:11:21;5.55;;;3.00;;
41663;SDS011;27353;50.906;7.248;2022-10-16T00:13:59;8.40;;;3.15;;
41663;SDS011;27353;50.906;7.248;2022-10-16T00:16:26;8.30;;;3.10;;
41663;SDS011;27353;50.906;7.248;2022-10-16T00:18:53;4.68;;;3.35;;
41663;SDS011;27353;50.906;7.248;2022-10-16T00:21:20;5.13;;;2.75;;
41663;SDS011;27353;50.906;7.248;2022-10-16T00:23:51;6.43;;;3.15;;
41663;SDS011;27353;50.906;7.248;2022-10-16T00:26:18;4.82;;;2.10;;
41663;SDS011;27353;50.906;7.248;2022-10-16T00:28:47;3.22;;;2.92;;
41663;SDS011;27353;50.906;7.248;2022-10-16T00:31:15;3.85;;;1.75;;
41663;SDS011;27353;50.906;7.248;2022-10-16T00:33:42;5.18;;;2.50;;
41663;SDS011;27353;50.906;7.248;2022-10-16T00:36:09;2.97;;;2.17;;
41663;SDS011;27353;50.906;7.248;2022-10-16T00:38:36;2.80;;;2.25;;
41663;SDS011;27353;50.906;7.248;2022-10-16T00:41:06;4.55;;;2.65;;
41663;SDS011;27353;50.906;7.248;2022-10-16T00:46:01;2.65;;;1.85;;
41663;SDS011;27353;50.906;7.248;2022-10-16T00:48:29;3.53;;;2.35;;
41663;SDS011;27353;50.906;7.248;2022-10-16T00:50:55;2.92;;;2.42;;
41663;SDS011;27353;50.906;7.248;2022-10-16T00:53:22;3.58;;;2.28;;
41663;SDS011;27353;50.906;7.248;2022-10-16T00:55:49;3.33;;;2.10;;
41663;SDS011;27353;50.906;7.248;2022-10-16T00:58:15;4.50;;;2.17;;
41663;SDS011;27353;50.906;7.248;2022-10-16T01:00:41;5.50;;;2.67;;
41663;SDS011;27353;50.906;7.248;2022-10-16T01:03:22;4.57;;;2.80;;
41663;SDS011;27353;50.906;7.248;2022-10-16T01:05:51;4.47;;;3.17;;
41663;SDS011;27353;50.906;7.248;2022-10-16T01:11:29;6.20;;;2.05;;
41663;SDS011;27353;50.906;7.248;2022-10-16T01:14:11;3.05;;;2.65;;
41663;SDS011;27353;50.906;7.248;2022-10-16T01:17:00;2.45;;;2.25;;
41663;SDS011;27353;50.906;7.248;2022-10-16T01:21:58;2.53;;;2.08;;
41663;SDS011;27353;50.906;7.248;2022-10-16T01:24:41;5.10;;;2.03;;
41663;SDS011;27353;50.906;7.248;2022-10-16T01:27:19;2.53;;;1.98;;
41663;SDS011;27353;50.906;7.248;2022-10-16T01:29:58;3.85;;;2.10;;
41663;SDS011;27353;50.906;7.248;2022-10-16T01:32:39;3.28;;;2.60;;
41663;SDS011;27353;50.906;7.248;2022-10-16T01:40:11;3.60;;;1.60;;
41663;SDS011;27353;50.906;7.248;2022-10-16T01:42:41;2.90;;;2.05;;
41663;SDS011;27353;50.906;7.248;2022-10-16T01:47:38;4.38;;;1.80;;
41663;SDS011;27353;50.906;7.248;2022-10-16T01:50:06;4.13;;;2.22;;
41663;SDS011;27353;50.906;7.248;2022-10-16T01:52:34;3.33;;;2.33;;
41663;SDS011;27353;50.906;7.248;2022-10-16T01:55:03;4.32;;;1.95;;
41663;SDS011;27353;50.906;7.248;2022-10-16T01:57:32;3.92;;;2.13;;
41663;SDS011;27353;50.906;7.248;2022-10-16T02:00:04;1.98;;;1.70;;
41663;SDS011;27353;50.906;7.248;2022-10-16T02:05:02;3.53;;;1.95;;
41663;SDS011;27353;50.906;7.248;2022-10-16T02:07:34;2.33;;;1.92;;
41663;SDS011;27353;50.906;7.248;2022-10-16T02:10:00;2.72;;;1.92;;
41663;SDS011;27353;50.906;7.248;2022-10-16T02:12:27;2.03;;;1.80;;
41663;SDS011;27353;50.906;7.248;2022-10-16T02:14:56;4.50;;;2.08;;
41663;SDS011;27353;50.906;7.248;2022-10-16T02:17:22;6.28;;;3.13;;
41663;SDS011;27353;50.906;7.248;2022-10-16T02:19:49;3.78;;;1.98;;
41663;SDS011;27353;50.906;7.248;2022-10-16T02:24:59;3.80;;;2.88;;
41663;SDS011;27353;50.906;7.248;2022-10-16T02:30:28;4.07;;;1.65;;
41663;SDS011;27353;50.906;7.248;2022-10-16T02:32:59;2.95;;;2.20;;
41663;SDS011;27353;50.906;7.248;2022-10-16T02:35:27;2.28;;;1.85;;
41663;SDS011;27353;50.906;7.248;2022-10-16T02:37:54;3.53;;;1.42;;
41663;SDS011;27353;50.906;7.248;2022-10-16T02:40:21;5.35;;;1.95;;
41663;SDS011;27353;50.906;7.248;2022-10-16T02:42:49;2.55;;;1.88;;
41663;SDS011;27353;50.906;7.248;2022-10-16T02:45:17;5.97;;;1.40;;
41663;SDS011;27353;50.906;7.248;2022-10-16T02:47:42;2.10;;;1.90;;
41663;SDS011;27353;50.906;7.248;2022-10-16T02:50:08;2.70;;;1.73;;
41663;SDS011;27353;50.906;7.248;2022-10-16T02:52:34;1.98;;;1.48;;
41663;SDS011;27353;50.906;7.248;2022-10-16T02:55:00;4.38;;;1.75;;
41663;SDS011;27353;50.906;7.248;2022-10-16T02:57:25;3.72;;;2.25;;
41663;SDS011;27353;50.906;7.248;2022-10-16T02:59:51;2.53;;;1.70;;
41663;SDS011;27353;50.906;7.248;2022-10-16T03:02:17;3.03;;;2.22;;
41663;SDS011;27353;50.906;7.248;2022-10-16T03:04:42;5.25;;;1.70;;
41663;SDS011;27353;50.906;7.248;2022-10-16T03:07:08;4.18;;;2.10;;
41663;SDS011;27353;50.906;7.248;2022-10-16T03:09:33;7.07;;;2.47;;
41663;SDS011;27353;50.906;7.248;2022-10-16T03:11:59;3.17;;;2.45;;
41663;SDS011;27353;50.906;7.248;2022-10-16T03:14:25;2.50;;;1.45;;
41663;SDS011;27353;50.906;7.248;2022-10-16T03:16:50;4.28;;;1.73;;
41663;SDS011;27353;50.906;7.248;2022-10-16T03:19:16;6.57;;;2.13;;
41663;SDS011;27353;50.906;7.248;2022-10-16T03:21:43;4.40;;;1.85;;
41663;SDS011;27353;50.906;7.248;2022-10-16T03:24:08;2.03;;;1.50;;
41663;SDS011;27353;50.906;7.248;2022-10-16T03:26:34;2.17;;;1.48;;
41663;SDS011;27353;50.906;7.248;2022-10-16T03:29:00;2.33;;;1.55;;
41663;SDS011;27353;50.906;7.248;2022-10-16T03:31:27;6.53;;;2.47;;
41663;SDS011;27353;50.906;7.248;2022-10-16T03:33:53;3.10;;;1.90;;
41663;SDS011;27353;50.906;7.248;2022-10-16T03:36:18;1.83;;;1.67;;
41663;SDS011;27353;50.906;7.248;2022-10-16T03:38:44;3.97;;;1.83;;
41663;SDS011;27353;50.906;7.248;2022-10-16T03:41:09;3.40;;;2.03;;
41663;SDS011;27353;50.906;7.248;2022-10-16T03:43:35;3.60;;;2.10;;
41663;SDS011;27353;50.906;7.248;2022-10-16T03:46:00;3.45;;;1.50;;
41663;SDS011;27353;50.906;7.248;2022-10-16T03:48:26;2.58;;;1.60;;
41663;SDS011;27353;50.906;7.248;2022-10-16T03:50:51;3.55;;;1.38;;
41663;SDS011;27353;50.906;7.248;2022-10-16T03:53:17;2.08;;;1.80;;
41663;SDS011;27353;50.906;7.248;2022-10-16T03:55:43;2.78;;;1.50;;
41663;SDS011;27353;50.906;7.248;2022-10-16T03:58:09;2.63;;;1.17;;
41663;SDS011;27353;50.906;7.248;2022-10-16T04:00:36;1.50;;;1.10;;
41663;SDS011;27353;50.906;7.248;2022-10-16T04:03:08;2.65;;;1.50;;
41663;SDS011;27353;50.906;7.248;2022-10-16T04:05:35;2.45;;;2.03;;
41663;SDS011;27353;50.906;7.248;2022-10-16T04:08:00;1.83;;;1.25;;
41663;SDS011;27353;50.906;7.248;2022-10-16T04:10:26;2.03;;;1.25;;
41663;SDS011;27353;50.906;7.248;2022-10-16T04:12:52;2.97;;;1.30;;
41663;SDS011;27353;50.906;7.248;2022-10-16T04:15:19;3.50;;;1.63;;
41663;SDS011;27353;50.906;7.248;2022-10-16T04:17:45;3.33;;;0.93;;
41663;SDS011;27353;50.906;7.248;2022-10-16T04:20:10;3.67;;;1.45;;
41663;SDS011;27353;50.906;7.248;2022-10-16T04:22:36;3.50;;;1.15;;
41663;SDS011;27353;50.906;7.248;2022-10-16T04:25:02;1.20;;;0.80;;
41663;SDS011;27353;50.906;7.248;2022-10-16T04:27:27;4.80;;;1.17;;
41663;SDS011;27353;50.906;7.248;2022-10-16T04:29:53;1.52;;;0.98;;
41663;SDS011;27353;50.906;7.248;2022-10-16T04:32:19;3.75;;;1.88;;
41663;SDS011;27353;50.906;7.248;2022-10-16T04:34:44;5.55;;;1.77;;
41663;SDS011;27353;50.906;7.248;2022-10-16T04:37:10;3.75;;;1.23;;
41663;SDS011;27353;50.906;7.248;2022-10-16T04:39:35;3.10;;;1.25;;
41663;SDS011;27353;50.906;7.248;2022-10-16T04:42:01;3.53;;;1.08;;
41663;SDS011;27353;50.906;7.248;2022-10-16T04:44:27;2.00;;;1.42;;
41663;SDS011;27353;50.906;7.248;2022-10-16T04:46:53;3.08;;;1.20;;
41663;SDS011;27353;50.906;7.248;2022-10-16T04:49:18;1.98;;;1.25;;
41663;SDS011;27353;50.906;7.248;2022-10-16T04:51:44;5.40;;;1.48;;
41663;SDS011;27353;50.906;7.248;2022-10-16T04:54:09;6.00;;;2.15;;
41663;SDS011;27353;50.906;7.248;2022-10-16T04:56:35;7.30;;;1.60;;
41663;SDS011;27353;50.906;7.248;2022-10-16T04:59:08;1.58;;;1.30;;
41663;SDS011;27353;50.906;7.248;2022-10-16T05:01:34;21.02;;;2.40;;
41663;SDS011;27353;50.906;7.248;2022-10-16T05:04:00;1.60;;;1.10;;
41663;SDS011;27353;50.906;7.248;2022-10-16T05:06:26;2.35;;;1.10;;
41663;SDS011;27353;50.906;7.248;2022-10-16T05:08:51;2.20;;;1.50;;
41663;SDS011;27353;50.906;7.248;2022-10-16T05:11:17;2.45;;;1.08;;
41663;SDS011;27353;50.906;7.248;2022-10-16T05:13:42;1.98;;;1.30;;
41663;SDS011;27353;50.906;7.248;2022-10-16T05:16:08;1.60;;;1.13;;
41663;SDS011;27353;50.906;7.248;2022-10-16T05:18:34;2.47;;;1.20;;
41663;SDS011;27353;50.906;7.248;2022-10-16T05:20:59;4.13;;;1.35;;
41663;SDS011;27353;50.906;7.248;2022-10-16T05:23:25;6.30;;;1.65;;
41663;SDS011;27353;50.906;7.248;2022-10-16T05:25:57;1.73;;;1.50;;
41663;SDS011;27353;50.906;7.248;2022-10-16T05:28:27;4.07;;;1.55;;
41663;SDS011;27353;50.906;7.248;2022-10-16T05:33:20;4.78;;;2.30;;
41663;SDS011;27353;50.906;7.248;2022-10-16T05:35:47;4.13;;;1.50;;
41663;SDS011;27353;50.906;7.248;2022-10-16T05:38:12;2.08;;;1.13;;
41663;SDS011;27353;50.906;7.248;2022-10-16T05:40:38;2.53;;;1.48;;
41663;SDS011;27353;50.906;7.248;2022-10-16T05:43:04;8.15;;;1.60;;
41663;SDS011;27353;50.906;7.248;2022-10-16T05:45:30;2.60;;;1.80;;
41663;SDS011;27353;50.906;7.248;2022-10-16T05:47:55;2.63;;;1.55;;
41663;SDS011;27353;50.906;7.248;2022-10-16T05:50:21;3.55;;;0.90;;
41663;SDS011;27353;50.906;7.248;2022-10-16T05:52:46;1.40;;;1.05;;
41663;SDS011;27353;50.906;7.248;2022-10-16T05:55:12;1.45;;;1.35;;
41663;SDS011;27353;50.906;7.248;2022-10-16T05:57:38;2.22;;;1.67;;
41663;SDS011;27353;50.906;7.248;2022-10-16T06:00:04;4.03;;;1.50;;
41663;SDS011;27353;50.906;7.248;2022-10-16T06:02:30;3.17;;;1.60;;
41663;SDS011;27353;50.906;7.248;2022-10-16T06:04:56;2.45;;;1.65;;
41663;SDS011;27353;50.906;7.248;2022-10-16T06:07:22;7.60;;;1.70;;
41663;SDS011;27353;50.906;7.248;2022-10-16T06:09:51;2.28;;;1.50;;
41663;SDS011;27353;50.906;7.248;2022-10-16T06:12:17;3.05;;;1.40;;
41663;SDS011;27353;50.906;7.248;2022-10-16T06:14:44;2.90;;;1.50;;
41663;SDS011;27353;50.906;7.248;2022-10-16T06:17:11;2.92;;;1.35;;
41663;SDS011;27353;50.906;7.248;2022-10-16T06:19:38;3.47;;;1.50;;
41663;SDS011;27353;50.906;7.248;2022-10-16T06:22:04;2.10;;;1.88;;
41663;SDS011;27353;50.906;7.248;2022-10-16T06:24:29;4.95;;;2.00;;
41663;SDS011;27353;50.906;7.248;2022-10-16T06:26:55;1.92;;;1.70;;
41663;SDS011;27353;50.906;7.248;2022-10-16T06:29:20;3.67;;;1.40;;
41663;SDS011;27353;50.906;7.248;2022-10-16T06:31:46;3.30;;;0.98;;
41663;SDS011;27353;50.906;7.248;2022-10-16T06:34:11;4.40;;;1.75;;
41663;SDS011;27353;50.906;7.248;2022-10-16T06:36:37;1.90;;;1.23;;
41663;SDS011;27353;50.906;7.248;2022-10-16T06:39:04;2.50;;;1.50;;
41663;SDS011;27353;50.906;7.248;2022-10-16T06:41:32;6.43;;;1.58;;
41663;SDS011;27353;50.906;7.248;2022-10-16T06:43:58;1.55;;;1.30;;
41663;SDS011;27353;50.906;7.248;2022-10-16T06:46:24;1.88;;;1.55;;
41663;SDS011;27353;50.906;7.248;2022-10-16T06:48:50;2.95;;;1.17;;
41663;SDS011;27353;50.906;7.248;2022-10-16T06:51:17;4.13;;;1.30;;
41663;SDS011;27353;50.906;7.248;2022-10-16T06:53:49;1.38;;;1.15;;
41663;SDS011;27353;50.906;7.248;2022-10-16T06:58:44;2.65;;;1.92;;
41663;SDS011;27353;50.906;7.248;2022-10-16T07:01:10;4.10;;;1.67;;
41663;SDS011;27353;50.906;7.248;2022-10-16T07:03:37;2.38;;;1.70;;
41663;SDS011;27353;50.906;7.248;2022-10-16T07:06:05;2.17;;;1.50;;
41663;SDS011;27353;50.906;7.248;2022-10-16T07:08:32;1.65;;;1.25;;
41663;SDS011;27353;50.906;7.248;2022-10-16T07:10:59;5.20;;;1.45;;
41663;SDS011;27353;50.906;7.248;2022-10-16T07:15:55;2.65;;;1.60;;
41663;SDS011;27353;50.906;7.248;2022-10-16T07:18:20;1.98;;;1.40;;
41663;SDS011;27353;50.906;7.248;2022-10-16T07:20:51;2.28;;;1.30;;
41663;SDS011;27353;50.906;7.248;2022-10-16T07:23:16;3.08;;;1.95;;
41663;SDS011;27353;50.906;7.248;2022-10-16T07:25:42;2.38;;;1.55;;
41663;SDS011;27353;50.906;7.248;2022-10-16T07:28:07;1.80;;;1.70;;
41663;SDS011;27353;50.906;7.248;2022-10-16T07:30:34;2.05;;;1.63;;
41663;SDS011;27353;50.906;7.248;2022-10-16T07:33:02;2.75;;;1.73;;
41663;SDS011;27353;50.906;7.248;2022-10-16T07:35:27;1.63;;;1.10;;
41663;SDS011;27353;50.906;7.248;2022-10-16T07:37:53;2.70;;;1.92;;
41663;SDS011;27353;50.906;7.248;2022-10-16T07:40:18;2.53;;;1.90;;
41663;SDS011;27353;50.906;7.248;2022-10-16T07:42:44;3.22;;;1.65;;
41663;SDS011;27353;50.906;7.248;2022-10-16T07:45:09;2.17;;;1.88;;
41663;SDS011;27353;50.906;7.248;2022-10-16T07:47:35;1.70;;;1.25;;
41663;SDS011;27353;50.906;7.248;2022-10-16T07:50:01;1.73;;;1.25;;
41663;SDS011;27353;50.906;7.248;2022-10-16T07:52:26;2.00;;;1.75;;
41663;SDS011;27353;50.906;7.248;2022-10-16T07:54:52;1.92;;;1.38;;
41663;SDS011;27353;50.906;7.248;2022-10-16T07:57:17;3.03;;;1.25;;
41663;SDS011;27353;50.906;7.248;2022-10-16T07:59:45;4.32;;;1.33;;
41663;SDS011;27353;50.906;7.248;2022-10-16T08:02:11;1.60;;;1.42;;
41663;SDS011;27353;50.906;7.248;2022-10-16T08:04:37;1.73;;;1.30;;
41663;SDS011;27353;50.906;7.248;2022-10-16T08:07:02;5.72;;;1.38;;
41663;SDS011;27353;50.906;7.248;2022-10-16T08:09:28;1.40;;;1.30;;
41663;SDS011;27353;50.906;7.248;2022-10-16T08:11:54;3.60;;;1.02;;
41663;SDS011;27353;50.906;7.248;2022-10-16T08:14:19;4.70;;;1.60;;
41663;SDS011;27353;50.906;7.248;2022-10-16T08:16:45;6.00;;;1.40;;
41663;SDS011;27353;50.906;7.248;2022-10-16T08:19:10;2.80;;;1.42;;
41663;SDS011;27353;50.906;7.248;2022-10-16T08:21:36;4.80;;;1.58;;
41663;SDS011;27353;50.906;7.248;2022-10-16T08:24:01;3.75;;;0.85;;
41663;SDS011;27353;50.906;7.248;2022-10-16T08:26:27;3.30;;;0.80;;
41663;SDS011;27353;50.906;7.248;2022-10-16T08:28:53;0.88;;;0.60;;
41663;SDS011;27353;50.906;7.248;2022-10-16T08:31:19;2.17;;;0.90;;
41663;SDS011;27353;50.906;7.248;2022-10-16T08:33:45;1.00;;;0.80;;
41663;SDS011;27353;50.906;7.248;2022-10-16T08:36:12;3.00;;;1.33;;
41663;SDS011;27353;50.906;7.248;2022-10-16T08:38:38;3.63;;;0.70;;
41663;SDS011;27353;50.906;7.248;2022-10-16T08:47:02;2.03;;;0.70;;
41663;SDS011;27353;50.906;7.248;2022-10-16T08:49:57;2.78;;;0.98;;
41663;SDS011;27353;50.906;7.248;2022-10-16T08:52:26;1.25;;;0.85;;
41663;SDS011;27353;50.906;7.248;2022-10-16T08:54:58;2.28;;;0.68;;
41663;SDS011;27353;50.906;7.248;2022-10-16T08:57:25;1.63;;;0.70;;
41663;SDS011;27353;50.906;7.248;2022-10-16T08:59:52;2.22;;;0.90;;
41663;SDS011;27353;50.906;7.248;2022-10-16T09:04:52;3.30;;;0.68;;
41663;SDS011;27353;50.906;7.248;2022-10-16T09:08:17;1.95;;;0.77;;
41663;SDS011;27353;50.906;7.248;2022-10-16T09:14:04;2.33;;;0.68;;
41663;SDS011;27353;50.906;7.248;2022-10-16T09:16:44;3.25;;;2.05;;
41663;SDS011;27353;50.906;7.248;2022-10-16T09:19:20;1.42;;;0.30;;
41663;SDS011;27353;50.906;7.248;2022-10-16T09:22:08;0.47;;;0.43;;
41663;SDS011;27353;50.906;7.248;2022-10-16T09:24:39;0.95;;;0.52;;
41663;SDS011;27353;50.906;7.248;2022-10-16T09:27:04;2.63;;;0.60;;
41663;SDS011;27353;50.906;7.248;2022-10-16T09:29:32;0.98;;;0.50;;
41663;SDS011;27353;50.906;7.248;2022-10-16T09:31:57;1.92;;;0.45;;
41663;SDS011;27353;50.906;7.248;2022-10-16T09:34:42;2.13;;;0.65;;
41663;SDS011;27353;50.906;7.248;2022-10-16T09:37:12;1.30;;;0.43;;
41663;SDS011;27353;50.906;7.248;2022-10-16T09:40:23;1.30;;;0.40;;
41663;SDS011;27353;50.906;7.248;2022-10-16T09:42:37;2.28;;;0.60;;
41663;SDS011;27353;50.906;7.248;2022-10-16T09:45:03;1.10;;;0.30;;
41663;SDS011;27353;50.906;7.248;2022-10-16T09:47:30;2.28;;;0.38;;
41663;SDS011;27353;50.906;7.248;2022-10-16T09:50:01;0.43;;;0.35;;
41663;SDS011;27353;50.906;7.248;2022-10-16T09:52:44;2.15;;;0.80;;
41663;SDS011;27353;50.906;7.248;2022-10-16T09:55:14;1.85;;;0.60;;
41663;SDS011;27353;50.906;7.248;2022-10-16T09:57:50;0.40;;;0.40;;
41663;SDS011;27353;50.906;7.248;2022-10-16T10:00:17;1.33;;;0.52;;
41663;SDS011;27353;50.906;7.248;2022-10-16T10:02:43;1.38;;;0.77;;
41663;SDS011;27353;50.906;7.248;2022-10-16T10:07:59;1.00;;;0.47;;
41663;SDS011;27353;50.906;7.248;2022-10-16T10:10:28;0.70;;;0.57;;
41663;SDS011;27353;50.906;7.248;2022-10-16T10:12:56;1.77;;;0.73;;
41663;SDS011;27353;50.906;7.248;2022-10-16T10:15:23;0.95;;;0.50;;
41663;SDS011;27353;50.906;7.248;2022-10-16T10:17:56;0.70;;;0.35;;
41663;SDS011;27353;50.906;7.248;2022-10-16T10:20:29;1.45;;;0.40;;
41663;SDS011;27353;50.906;7.248;2022-10-16T10:22:59;1.60;;;0.57;;
41663;SDS011;27353;50.906;7.248;2022-10-16T10:26:18;2.80;;;0.50;;
41663;SDS011;27353;50.906;7.248;2022-10-16T10:36:32;3.47;;;0.70;;
41663;SDS011;27353;50.906;7.248;2022-10-16T10:39:08;0.77;;;0.50;;
41663;SDS011;27353;50.906;7.248;2022-10-16T10:41:59;4.32;;;0.77;;
41663;SDS011;27353;50.906;7.248;2022-10-16T10:53:07;1.88;;;0.38;;
41663;SDS011;27353;50.906;7.248;2022-10-16T10:58:24;2.05;;;0.95;;
41663;SDS011;27353;50.906;7.248;2022-10-16T11:01:06;0.45;;;0.28;;
41663;SDS011;27353;50.906;7.248;2022-10-16T11:03:46;2.60;;;0.50;;
41663;SDS011;27353;50.906;7.248;2022-10-16T11:06:32;1.38;;;0.25;;
41663;SDS011;27353;50.906;7.248;2022-10-16T11:12:01;1.20;;;0.40;;
41663;SDS011;27353;50.906;7.248;2022-10-16T11:20:32;0.65;;;0.28;;
41663;SDS011;27353;50.906;7.248;2022-10-16T11:23:05;1.00;;;0.30;;
41663;SDS011;27353;50.906;7.248;2022-10-16T11:25:35;1.02;;;0.38;;
41663;SDS011;27353;50.906;7.248;2022-10-16T11:28:09;3.45;;;0.55;;
41663;SDS011;27353;50.906;7.248;2022-10-16T11:38:34;0.75;;;0.40;;
41663;SDS011;27353;50.906;7.248;2022-10-16T11:41:37;3.78;;;0.40;;
41663;SDS011;27353;50.906;7.248;2022-10-16T11:47:24;0.90;;;0.45;;
41663;SDS011;27353;50.906;7.248;2022-10-16T11:50:17;0.52;;;0.45;;
41663;SDS011;27353;50.906;7.248;2022-10-16T11:52:53;1.20;;;0.60;;
41663;SDS011;27353;50.906;7.248;2022-10-16T11:55:27;1.48;;;0.30;;
41663;SDS011;27353;50.906;7.248;2022-10-16T12:01:19;1.05;;;0.47;;
41663;SDS011;27353;50.906;7.248;2022-10-16T12:03:25;1.02;;;0.47;;
41663;SDS011;27353;50.906;7.248;2022-10-16T12:06:21;2.88;;;0.40;;
41663;SDS011;27353;50.906;7.248;2022-10-16T12:08:58;1.23;;;0.45;;
41663;SDS011;27353;50.906;7.248;2022-10-16T12:14:07;3.25;;;1.17;;
41663;SDS011;27353;50.906;7.248;2022-10-16T12:16:51;1.10;;;0.60;;
41663;SDS011;27353;50.906;7.248;2022-10-16T12:19:20;3.08;;;0.95;;
41663;SDS011;27353;50.906;7.248;2022-10-16T12:21:55;5.65;;;0.88;;
41663;SDS011;27353;50.906;7.248;2022-10-16T12:27:00;1.55;;;0.57;;
41663;SDS011;27353;50.906;7.248;2022-10-16T12:32:03;0.98;;;0.45;;
41663;SDS011;27353;50.906;7.248;2022-10-16T12:34:43;1.20;;;0.30;;
41663;SDS011;27353;50.906;7.248;2022-10-16T12:37:11;1.48;;;0.40;;
41663;SDS011;27353;50.906;7.248;2022-10-16T12:39:46;1.38;;;0.85;;
41663;SDS011;27353;50.906;7.248;2022-10-16T12:44:51;1.92;;;0.28;;
41663;SDS011;27353;50.906;7.248;2022-10-16T12:47:21;2.72;;;0.60;;
41663;SDS011;27353;50.906;7.248;2022-10-16T12:49:57;2.35;;;0.35;;
41663;SDS011;27353;50.906;7.248;2022-10-16T12:52:36;5.30;;;1.77;;
41663;SDS011;27353;50.906;7.248;2022-10-16T12:55:04;2.03;;;0.43;;
41663;SDS011;27353;50.906;7.248;2022-10-16T12:58:00;4.43;;;0.68;;
41663;SDS011;27353;50.906;7.248;2022-10-16T13:06:11;0.75;;;0.30;;
41663;SDS011;27353;50.906;7.248;2022-10-16T13:08:50;1.98;;;0.52;;
41663;SDS011;27353;50.906;7.248;2022-10-16T13:19:48;0.73;;;0.50;;
41663;SDS011;27353;50.906;7.248;2022-10-16T13:25:24;1.88;;;0.35;;
41663;SDS011;27353;50.906;7.248;2022-10-16T13:28:13;1.15;;;0.30;;
41663;SDS011;27353;50.906;7.248;2022-10-16T13:30:50;1.27;;;0.70;;
41663;SDS011;27353;50.906;7.248;2022-10-16T13:36:17;0.70;;;0.57;;
41663;SDS011;27353;50.906;7.248;2022-10-16T13:38:44;1.73;;;0.68;;
41663;SDS011;27353;50.906;7.248;2022-10-16T13:41:17;0.30;;;0.28;;
41663;SDS011;27353;50.906;7.248;2022-10-16T13:43:44;2.05;;;0.60;;
41663;SDS011;27353;50.906;7.248;2022-10-16T13:46:23;0.75;;;0.43;;
41663;SDS011;27353;50.906;7.248;2022-10-16T13:49:00;1.23;;;0.50;;
41663;SDS011;27353;50.906;7.248;2022-10-16T13:51:29;1.20;;;0.45;;
41663;SDS011;27353;50.906;7.248;2022-10-16T13:53:56;1.20;;;0.30;;
41663;SDS011;27353;50.906;7.248;2022-10-16T13:56:22;2.92;;;1.20;;
41663;SDS011;27353;50.906;7.248;2022-10-16T13:59:02;2.53;;;0.35;;
41663;SDS011;27353;50.906;7.248;2022-10-16T14:01:30;0.90;;;0.35;;
41663;SDS011;27353;50.906;7.248;2022-10-16T14:04:05;4.25;;;0.60;;
41663;SDS011;27353;50.906;7.248;2022-10-16T14:06:33;1.30;;;1.20;;
41663;SDS011;27353;50.906;7.248;2022-10-16T14:09:08;1.02;;;0.40;;
41663;SDS011;27353;50.906;7.248;2022-10-16T14:11:49;1.55;;;0.45;;
41663;SDS011;27353;50.906;7.248;2022-10-16T14:14:24;1.30;;;0.45;;
41663;SDS011;27353;50.906;7.248;2022-10-16T14:19:28;1.23;;;0.20;;
41663;SDS011;27353;50.906;7.248;2022-10-16T14:21:54;0.40;;;0.40;;
41663;SDS011;27353;50.906;7.248;2022-10-16T14:24:24;4.13;;;0.98;;
41663;SDS011;27353;50.906;7.248;2022-10-16T14:26:50;2.00;;;0.40;;
41663;SDS011;27353;50.906;7.248;2022-10-16T14:29:19;1.55;;;0.50;;
41663;SDS011;27353;50.906;7.248;2022-10-16T14:31:56;1.17;;;0.40;;
41663;SDS011;27353;50.906;7.248;2022-10-16T14:34:38;3.70;;;0.77;;
41663;SDS011;27353;50.906;7.248;2022-10-16T14:37:06;1.30;;;0.40;;
41663;SDS011;27353;50.906;7.248;2022-10-16T14:39:39;0.73;;;0.50;;
41663;SDS011;27353;50.906;7.248;2022-10-16T14:42:11;0.70;;;0.38;;
41663;SDS011;27353;50.906;7.248;2022-10-16T14:44:39;3.42;;;0.60;;
41663;SDS011;27353;50.906;7.248;2022-10-16T14:47:09;1.55;;;0.47;;
41663;SDS011;27353;50.906;7.248;2022-10-16T14:49:39;1.63;;;0.70;;
41663;SDS011;27353;50.906;7.248;2022-10-16T14:52:12;4.55;;;0.75;;
41663;SDS011;27353;50.906;7.248;2022-10-16T14:54:39;0.60;;;0.60;;
41663;SDS011;27353;50.906;7.248;2022-10-16T14:57:05;3.75;;;0.80;;
41663;SDS011;27353;50.906;7.248;2022-10-16T14:59:42;2.17;;;0.95;;
41663;SDS011;27353;50.906;7.248;2022-10-16T15:04:46;2.65;;;0.77;;
41663;SDS011;27353;50.906;7.248;2022-10-16T15:07:12;3.63;;;0.82;;
41663;SDS011;27353;50.906;7.248;2022-10-16T15:09:37;0.70;;;0.70;;
41663;SDS011;27353;50.906;7.248;2022-10-16T15:12:03;0.98;;;0.50;;
41663;SDS011;27353;50.906;7.248;2022-10-16T15:14:29;2.35;;;0.80;;
41663;SDS011;27353;50.906;7.248;2022-10-16T15:16:54;5.05;;;0.90;;
41663;SDS011;27353;50.906;7.248;2022-10-16T15:19:20;4.65;;;1.23;;
41663;SDS011;27353;50.906;7.248;2022-10-16T15:21:45;1.88;;;1.05;;
41663;SDS011;27353;50.906;7.248;2022-10-16T15:24:12;2.25;;;0.60;;
41663;SDS011;27353;50.906;7.248;2022-10-16T15:26:39;2.58;;;1.13;;
41663;SDS011;27353;50.906;7.248;2022-10-16T15:29:05;2.15;;;0.50;;
41663;SDS011;27353;50.906;7.248;2022-10-16T15:31:30;2.15;;;0.80;;
41663;SDS011;27353;50.906;7.248;2022-10-16T15:33:56;3.47;;;0.60;;
41663;SDS011;27353;50.906;7.248;2022-10-16T15:36:31;0.90;;;0.70;;
41663;SDS011;27353;50.906;7.248;2022-10-16T15:39:01;1.50;;;0.70;;
41663;SDS011;27353;50.906;7.248;2022-10-16T15:41:36;3.95;;;1.23;;
41663;SDS011;27353;50.906;7.248;2022-10-16T15:44:02;4.07;;;0.98;;
41663;SDS011;27353;50.906;7.248;2022-10-16T15:46:28;2.05;;;0.90;;
41663;SDS011;27353;50.906;7.248;2022-10-16T15:48:56;2.47;;;1.50;;
41663;SDS011;27353;50.906;7.248;2022-10-16T15:51:23;1.90;;;0.82;;
41663;SDS011;27353;50.906;7.248;2022-10-16T15:53:49;4.30;;;1.00;;
41663;SDS011;27353;50.906;7.248;2022-10-16T15:56:16;1.08;;;0.45;;
41663;SDS011;27353;50.906;7.248;2022-10-16T15:58:42;1.60;;;0.57;;
41663;SDS011;27353;50.906;7.248;2022-10-16T16:01:08;3.15;;;0.90;;
41663;SDS011;27353;50.906;7.248;2022-10-16T16:03:35;1.02;;;0.75;;
41663;SDS011;27353;50.906;7.248;2022-10-16T16:06:06;1.05;;;0.55;;
41663;SDS011;27353;50.906;7.248;2022-10-16T16:08:32;3.50;;;0.80;;
41663;SDS011;27353;50.906;7.248;2022-10-16T16:11:03;2.67;;;0.93;;
41663;SDS011;27353;50.906;7.248;2022-10-16T16:13:30;3.65;;;0.90;;
41663;SDS011;27353;50.906;7.248;2022-10-16T16:15:56;1.25;;;0.60;;
41663;SDS011;27353;50.906;7.248;2022-10-16T16:18:22;1.00;;;0.65;;
41663;SDS011;27353;50.906;7.248;2022-10-16T16:20:48;3.92;;;0.85;;
41663;SDS011;27353;50.906;7.248;2022-10-16T16:23:15;2.70;;;0.65;;
41663;SDS011;27353;50.906;7.248;2022-10-16T16:25:41;1.15;;;0.68;;
41663;SDS011;27353;50.906;7.248;2022-10-16T16:28:06;1.75;;;0.60;;
41663;SDS011;27353;50.906;7.248;2022-10-16T16:30:35;1.98;;;0.93;;
41663;SDS011;27353;50.906;7.248;2022-10-16T16:33:00;1.10;;;0.70;;
41663;SDS011;27353;50.906;7.248;2022-10-16T16:35:26;1.73;;;0.60;;
41663;SDS011;27353;50.906;7.248;2022-10-16T16:37:52;1.52;;;0.52;;
41663;SDS011;27353;50.906;7.248;2022-10-16T16:40:17;9.00;;;1.90;;
41663;SDS011;27353;50.906;7.248;2022-10-16T16:42:43;2.92;;;1.10;;
41663;SDS011;27353;50.906;7.248;2022-10-16T16:45:08;2.00;;;1.00;;
41663;SDS011;27353;50.906;7.248;2022-10-16T16:47:34;4.07;;;1.27;;
41663;SDS011;27353;50.906;7.248;2022-10-16T16:52:28;3.08;;;1.00;;
41663;SDS011;27353;50.906;7.248;2022-10-16T16:54:54;1.58;;;1.10;;
41663;SDS011;27353;50.906;7.248;2022-10-16T16:57:19;1.33;;;1.10;;
41663;SDS011;27353;50.906;7.248;2022-10-16T16:59:45;1.40;;;1.17;;
41663;SDS011;27353;50.906;7.248;2022-10-16T17:02:11;1.50;;;0.65;;
41663;SDS011;27353;50.906;7.248;2022-10-16T17:04:36;1.42;;;0.90;;
41663;SDS011;27353;50.906;7.248;2022-10-16T17:07:02;2.75;;;0.82;;